Alexandria, Missouri
Current Conditions -  °F | °C
As of 6:15 AM on Sunday 23 Nov 2014 (Local Time) from KEOK Reporting Station
Light Rain Light Rain  
Wind Chill: 52°   Ceiling: 3000
Heat Index: 52°   Visibility: 9mi
Dew Point: 50°   Wind: 7mph
Humidity: 94%   Direction: 150°SSE
Pressure: 29.64"   Gusts: NA
Location:  40.36°N, 91.46°W
Report Text: KEOK 231215Z AUTO 15006KT 9SM -RA OVC030 11/10 A2964 RMK AO2
Loading
Personal Weather Stations






























Interactive Weather Map New forecast layout! Learn more

10-Day Weather Forecast

Advertisements
Track Severe Weather on mobile